createdAt,value
2019-06-10T00:01:26.444Z,10.70
2019-06-10T00:03:58.130Z,8.78
2019-06-10T00:06:30.960Z,10.03
2019-06-10T00:09:06.497Z,8.33
2019-06-10T00:11:37.213Z,11.27
2019-06-10T00:14:08.005Z,8.83
2019-06-10T00:16:41.174Z,8.77
2019-06-10T00:19:13.468Z,11.10
2019-06-10T00:21:44.078Z,9.75
2019-06-10T00:24:14.711Z,12.60
2019-06-10T00:26:47.972Z,13.22
2019-06-10T00:29:18.508Z,8.23
2019-06-10T00:31:50.824Z,9.23
2019-06-10T00:34:22.259Z,10.03
2019-06-10T00:36:52.940Z,10.78
2019-06-10T00:39:23.523Z,9.73
2019-06-10T00:41:54.182Z,10.30
2019-06-10T00:44:25.471Z,10.32
2019-06-10T00:46:56.149Z,9.15
2019-06-10T00:49:26.721Z,11.33
2019-06-10T00:51:57.413Z,8.98
2019-06-10T00:54:28.036Z,10.50
2019-06-10T00:57:01.172Z,9.65
2019-06-10T00:59:32.055Z,10.45
2019-06-10T01:02:03.358Z,10.03
2019-06-10T01:04:35.295Z,9.75
2019-06-10T01:07:06.544Z,10.08
2019-06-10T01:09:37.221Z,9.98
2019-06-10T01:12:09.054Z,8.40
2019-06-10T01:14:41.202Z,9.23
2019-06-10T01:17:15.256Z,8.40
2019-06-10T01:19:45.210Z,11.25
2019-06-10T01:22:17.349Z,9.68
2019-06-10T01:24:48.126Z,12.13
2019-06-10T01:27:21.060Z,10.45
2019-06-10T01:29:51.227Z,12.15
2019-06-10T01:32:22.111Z,10.20
2019-06-10T01:34:52.753Z,9.35
2019-06-10T01:37:25.884Z,9.28
2019-06-10T01:39:56.540Z,10.75
2019-06-10T01:42:27.095Z,11.88
2019-06-10T01:44:57.585Z,9.30
2019-06-10T01:47:30.979Z,9.37
2019-06-10T01:50:01.744Z,9.98
2019-06-10T01:52:32.266Z,11.78
2019-06-10T01:55:02.951Z,12.45
2019-06-10T01:57:33.675Z,10.93
2019-06-10T02:00:09.222Z,10.72
2019-06-10T02:02:37.368Z,12.35
2019-06-10T02:05:11.536Z,9.10
2019-06-10T02:07:41.302Z,11.33
2019-06-10T02:10:15.626Z,13.08
2019-06-10T02:12:44.415Z,10.25
2019-06-10T02:15:15.615Z,10.58
2019-06-10T02:17:47.202Z,10.88
2019-06-10T02:20:19.383Z,9.38
2019-06-10T02:22:51.581Z,11.70
2019-06-10T02:25:23.004Z,10.98
2019-06-10T02:27:53.611Z,10.40
2019-06-10T02:30:40.344Z,12.00
2019-06-10T02:32:58.075Z,9.88
2019-06-10T02:35:40.100Z,10.10
2019-06-10T02:38:03.549Z,9.45
2019-06-10T02:40:36.503Z,9.88
2019-06-10T02:43:07.333Z,11.05
2019-06-10T02:45:38.124Z,9.83
2019-06-10T02:48:08.733Z,10.85
2019-06-10T02:51:04.279Z,8.55
2019-06-10T02:53:36.629Z,9.45
2019-06-10T02:56:08.909Z,9.30
2019-06-10T02:58:40.275Z,10.60
2019-06-10T03:01:16.316Z,9.33
2019-06-10T03:03:49.406Z,11.85
2019-06-10T03:06:21.329Z,10.53
2019-06-10T03:08:50.263Z,8.63
2019-06-10T03:11:27.022Z,8.13
2019-06-10T03:13:53.208Z,10.60
2019-06-10T03:16:34.411Z,9.95
2019-06-10T03:19:05.703Z,10.80
2019-06-10T03:21:36.287Z,10.80
2019-06-10T03:24:06.851Z,10.30
2019-06-10T03:26:37.561Z,11.33
2019-06-10T03:29:08.078Z,11.05
2019-06-10T03:31:43.275Z,9.50
2019-06-10T03:34:14.367Z,10.32
2019-06-10T03:36:43.700Z,11.95
2019-06-10T03:39:14.271Z,13.05
2019-06-10T03:41:45.117Z,10.48
2019-06-10T03:44:16.846Z,10.38
2019-06-10T03:46:47.778Z,11.35
2019-06-10T03:49:19.132Z,8.98
2019-06-10T03:51:52.954Z,10.08
2019-06-10T03:54:27.316Z,8.80
2019-06-10T03:56:55.609Z,9.90
2019-06-10T03:59:29.067Z,10.93
2019-06-10T04:01:58.698Z,11.83
2019-06-10T04:04:29.558Z,11.93
2019-06-10T04:07:03.567Z,11.65
2019-06-10T04:09:33.068Z,10.10
2019-06-10T04:12:03.689Z,12.18
2019-06-10T04:14:36.036Z,16.10
2019-06-10T04:17:06.650Z,11.80
2019-06-10T04:19:37.288Z,11.60
2019-06-10T04:22:07.819Z,10.07
2019-06-10T04:24:38.722Z,12.73
2019-06-10T04:27:09.305Z,16.27
2019-06-10T04:29:42.063Z,9.88
2019-06-10T04:32:12.300Z,12.47
2019-06-10T04:34:43.433Z,12.03
2019-06-10T04:37:14.092Z,14.20
2019-06-10T04:39:44.801Z,12.40
2019-06-10T04:42:15.447Z,9.93
2019-06-10T04:44:46.678Z,9.75
2019-06-10T04:47:18.535Z,11.03
2019-06-10T04:49:52.109Z,9.83
2019-06-10T04:52:23.625Z,11.80
2019-06-10T04:54:55.343Z,9.50
2019-06-10T04:57:28.026Z,8.63
2019-06-10T04:59:58.844Z,10.07
2019-06-10T05:02:30.796Z,10.93
2019-06-10T05:05:03.916Z,8.88
2019-06-10T05:07:37.116Z,11.85
2019-06-10T05:10:09.111Z,8.33
2019-06-10T05:12:39.651Z,9.53
2019-06-10T05:15:12.541Z,12.00
2019-06-10T05:17:43.910Z,9.50
2019-06-10T05:20:15.168Z,11.28
2019-06-10T05:22:45.929Z,9.07
2019-06-10T05:25:16.648Z,8.70
2019-06-10T05:27:48.043Z,13.72
2019-06-10T05:30:20.030Z,11.05
2019-06-10T05:32:52.370Z,9.78
2019-06-10T05:35:24.235Z,9.70
2019-06-10T05:37:55.602Z,11.88
2019-06-10T05:40:27.606Z,9.93
2019-06-10T05:42:58.273Z,11.33
2019-06-10T05:45:29.414Z,8.90
2019-06-10T05:48:02.838Z,10.25
2019-06-10T05:50:34.957Z,10.18
2019-06-10T05:53:06.166Z,8.93
2019-06-10T05:55:37.493Z,10.20
2019-06-10T05:58:08.199Z,10.82
2019-06-10T06:00:38.981Z,13.13
2019-06-10T06:03:11.960Z,10.38
2019-06-10T06:05:43.344Z,10.72
2019-06-10T06:08:14.076Z,9.50
2019-06-10T06:10:44.771Z,11.67
2019-06-10T06:13:15.501Z,10.13
2019-06-10T06:15:46.290Z,11.53
2019-06-10T06:18:17.167Z,12.13
2019-06-10T06:20:48.447Z,10.55
2019-06-10T06:23:19.134Z,13.78
2019-06-10T06:25:52.960Z,11.40
2019-06-10T06:28:22.991Z,13.03
2019-06-10T06:30:53.939Z,11.68
2019-06-10T06:33:24.751Z,11.83
2019-06-10T06:36:03.693Z,12.23
2019-06-10T06:38:40.619Z,12.23
2019-06-10T06:41:22.417Z,12.25
2019-06-10T06:43:53.204Z,11.43
2019-06-10T06:46:25.613Z,11.23
2019-06-10T06:48:56.326Z,11.15
2019-06-10T06:51:37.969Z,9.37
2019-06-10T06:53:59.619Z,10.98
2019-06-10T06:56:35.447Z,10.15
2019-06-10T06:59:04.837Z,12.07
2019-06-10T07:01:38.066Z,10.40
2019-06-10T07:04:12.858Z,10.82
2019-06-10T07:06:44.213Z,11.80
2019-06-10T07:09:15.964Z,11.15
2019-06-10T07:11:48.143Z,10.98
2019-06-10T07:14:23.163Z,10.68
2019-06-10T07:16:53.044Z,9.55
2019-06-10T07:19:26.059Z,10.82
2019-06-10T07:22:08.661Z,10.43
2019-06-10T07:24:29.063Z,10.15
2019-06-10T07:27:02.603Z,10.53
2019-06-10T07:29:34.109Z,9.70
2019-06-10T07:32:04.768Z,9.73
2019-06-10T07:34:37.112Z,9.80
2019-06-10T07:37:07.713Z,12.20
2019-06-10T07:39:39.497Z,12.63
2019-06-10T07:42:10.233Z,11.05
2019-06-10T07:44:43.167Z,10.53
2019-06-10T07:47:13.170Z,10.18
2019-06-10T07:49:45.415Z,11.05
2019-06-10T07:52:19.647Z,10.03
2019-06-10T07:54:52.770Z,10.95
2019-06-10T07:57:22.673Z,11.38
2019-06-10T07:59:53.354Z,13.58
2019-06-10T08:02:23.879Z,12.90
2019-06-10T08:04:54.587Z,12.30
2019-06-10T08:07:25.554Z,11.53
2019-06-10T08:09:56.082Z,12.80
2019-06-10T08:12:26.600Z,10.70
2019-06-10T08:14:57.140Z,11.90
2019-06-10T08:17:27.668Z,10.27
2019-06-10T08:19:58.332Z,10.33
2019-06-10T08:22:33.418Z,9.85
2019-06-10T08:25:04.823Z,10.50
2019-06-10T08:27:36.459Z,9.93
2019-06-10T08:30:21.063Z,9.20
2019-06-10T08:32:44.522Z,10.68
2019-06-10T08:35:13.154Z,12.25
2019-06-10T08:37:45.965Z,10.90
2019-06-10T08:40:16.506Z,11.43
2019-06-10T08:42:48.824Z,11.05
2019-06-10T08:45:22.750Z,13.05
2019-06-10T08:47:54.228Z,13.55
2019-06-10T08:50:25.128Z,11.47
2019-06-10T08:53:12.824Z,11.60
2019-06-10T08:55:29.470Z,10.88
2019-06-10T08:58:02.761Z,9.83
2019-06-10T09:00:37.386Z,11.95
2019-06-10T09:03:12.423Z,14.00
2019-06-10T09:05:47.462Z,12.75
2019-06-10T09:08:14.719Z,12.25
2019-06-10T09:10:49.149Z,14.65
2019-06-10T09:13:17.874Z,16.15
2019-06-10T09:16:06.883Z,13.32
2019-06-10T09:18:23.208Z,12.15
2019-06-10T09:20:55.981Z,14.45
2019-06-10T09:23:25.959Z,15.60
2019-06-10T09:25:57.753Z,19.50
2019-06-10T09:28:28.672Z,26.17
2019-06-10T09:30:59.914Z,24.27
2019-06-10T09:33:33.134Z,27.45
2019-06-10T09:36:03.957Z,19.65
2019-06-10T09:38:35.929Z,15.98
2019-06-10T09:41:07.194Z,17.27
2019-06-10T09:43:41.348Z,19.60
2019-06-10T09:46:12.633Z,15.93
2019-06-10T09:48:47.911Z,14.65
2019-06-10T09:51:16.948Z,14.53
2019-06-10T09:54:01.098Z,15.53
2019-06-10T09:56:20.191Z,17.92
2019-06-10T09:58:52.947Z,19.50
2019-06-10T10:01:24.571Z,16.55
2019-06-10T10:04:00.088Z,14.80
2019-06-10T10:06:29.874Z,17.07
2019-06-10T10:09:03.216Z,16.60
2019-06-10T10:11:32.794Z,15.95
2019-06-10T10:14:06.432Z,17.02
2019-06-10T10:16:36.912Z,18.17
2019-06-10T10:19:08.664Z,19.77
2019-06-10T10:21:41.303Z,19.45
2019-06-10T10:24:14.915Z,18.52
2019-06-10T10:26:48.234Z,16.07
2019-06-10T10:29:16.511Z,14.40
2019-06-10T10:31:49.478Z,16.63
2019-06-10T10:34:19.363Z,13.38
2019-06-10T10:36:54.399Z,15.38
2019-06-10T10:39:24.680Z,15.43
2019-06-10T10:41:57.252Z,14.10
2019-06-10T10:44:27.994Z,12.53
2019-06-10T10:46:58.508Z,14.68
2019-06-10T10:49:29.057Z,13.47
2019-06-10T10:52:02.592Z,14.00
2019-06-10T10:54:35.948Z,12.60
2019-06-10T10:57:10.275Z,13.62
2019-06-10T10:59:43.130Z,14.33
2019-06-10T11:02:13.084Z,12.88
2019-06-10T11:04:47.937Z,11.33
2019-06-10T11:07:18.576Z,13.95
2019-06-10T11:09:50.416Z,13.43
2019-06-10T11:12:22.923Z,16.77
2019-06-10T11:14:56.197Z,12.47
2019-06-10T11:17:26.603Z,12.00
2019-06-10T11:19:57.781Z,18.70
2019-06-10T11:22:28.415Z,18.00
2019-06-10T11:24:59.226Z,13.85
2019-06-10T11:27:30.825Z,13.30
2019-06-10T11:30:03.516Z,12.60
2019-06-10T11:32:34.063Z,13.23
2019-06-10T11:35:04.950Z,14.63
2019-06-10T11:37:36.895Z,9.95
2019-06-10T11:40:07.874Z,14.53
2019-06-10T11:42:38.757Z,14.13
2019-06-10T11:45:10.174Z,13.35
2019-06-10T11:47:42.601Z,12.20
2019-06-10T11:50:13.583Z,12.63
2019-06-10T11:52:44.188Z,13.90
2019-06-10T11:55:19.168Z,18.40
2019-06-10T11:57:48.218Z,11.18
2019-06-10T12:00:19.210Z,13.60
2019-06-10T12:02:50.923Z,12.55
2019-06-10T12:05:24.213Z,11.40
2019-06-10T12:07:58.291Z,16.23
2019-06-10T12:10:29.833Z,12.65
2019-06-10T12:13:07.112Z,12.00
2019-06-10T12:16:13.991Z,12.40
2019-06-10T12:18:08.775Z,12.73
2019-06-10T12:20:42.518Z,12.70
2019-06-10T12:23:12.798Z,12.98
2019-06-10T12:25:43.805Z,12.90
2019-06-10T12:28:16.468Z,14.60
2019-06-10T12:30:47.857Z,13.18
2019-06-10T12:33:22.202Z,16.75
2019-06-10T12:35:59.472Z,11.80
2019-06-10T12:38:27.988Z,13.73
2019-06-10T12:41:03.237Z,15.23
2019-06-10T12:43:33.885Z,13.70
2019-06-10T12:46:05.856Z,13.50
2019-06-10T12:48:37.117Z,13.60
2019-06-10T12:51:10.239Z,13.10
2019-06-10T12:53:43.264Z,13.72
2019-06-10T12:56:15.246Z,15.03
2019-06-10T12:58:46.251Z,16.82
2019-06-10T13:01:18.343Z,13.45
2019-06-10T13:03:49.451Z,14.80
2019-06-10T13:06:23.358Z,11.47
2019-06-10T13:08:56.722Z,13.72
2019-06-10T13:11:28.695Z,12.13
2019-06-10T13:14:04.034Z,14.13
2019-06-10T13:16:34.216Z,12.80
2019-06-10T13:19:07.900Z,17.85
2019-06-10T13:21:42.433Z,10.68
2019-06-10T13:24:13.756Z,10.25
2019-06-10T13:26:47.495Z,16.37
2019-06-10T13:29:18.056Z,11.53
2019-06-10T13:31:48.697Z,16.30
2019-06-10T13:34:22.127Z,13.80
2019-06-10T13:36:53.894Z,14.30
2019-06-10T13:39:26.929Z,11.88
2019-06-10T13:41:57.574Z,15.23
2019-06-10T13:44:28.198Z,14.90
2019-06-10T13:47:02.030Z,10.45
2019-06-10T13:49:33.106Z,11.07
2019-06-10T13:52:08.501Z,14.10
2019-06-10T13:54:36.844Z,15.65
2019-06-10T13:57:13.632Z,13.38
2019-06-10T13:59:46.414Z,14.55
2019-06-10T14:02:16.096Z,15.00
2019-06-10T14:04:47.763Z,14.75
2019-06-10T14:07:18.693Z,13.80
2019-06-10T14:09:50.329Z,13.93
2019-06-10T14:12:23.144Z,12.18
2019-06-10T14:14:53.636Z,14.95
2019-06-10T14:17:25.541Z,14.23
2019-06-10T14:19:56.532Z,12.07
2019-06-10T14:22:27.400Z,12.27
2019-06-10T14:24:58.171Z,11.12
2019-06-10T14:27:29.051Z,13.30
2019-06-10T14:30:02.235Z,15.03
2019-06-10T14:32:33.079Z,14.90
2019-06-10T14:35:07.010Z,14.87
2019-06-10T14:37:39.364Z,13.45
2019-06-10T14:40:13.307Z,14.83
2019-06-10T14:42:43.256Z,17.15
2019-06-10T14:45:16.619Z,15.53
2019-06-10T14:47:47.625Z,15.40
2019-06-10T14:50:23.016Z,18.42
2019-06-10T14:52:53.183Z,15.93
2019-06-10T14:55:23.740Z,14.75
2019-06-10T14:57:55.386Z,14.50
2019-06-10T15:00:26.167Z,18.70
2019-06-10T15:02:57.375Z,18.10
2019-06-10T15:05:28.187Z,15.90
2019-06-10T15:07:59.194Z,16.25
2019-06-10T15:10:32.241Z,18.07
2019-06-10T15:13:03.933Z,18.05
2019-06-10T15:15:35.579Z,12.78
2019-06-10T15:18:07.628Z,15.03
2019-06-10T15:20:42.794Z,15.20
2019-06-10T15:23:16.450Z,19.82
2019-06-10T15:25:52.866Z,14.17
2019-06-10T15:28:18.101Z,14.38
2019-06-10T15:30:48.821Z,18.80
2019-06-10T15:33:19.701Z,14.38
2019-06-10T15:35:52.969Z,16.87
2019-06-10T15:38:23.327Z,15.68
2019-06-10T15:40:54.145Z,17.82
2019-06-10T15:43:25.124Z,12.45
2019-06-10T15:45:55.827Z,15.83
2019-06-10T15:48:26.381Z,16.77
2019-06-10T15:50:57.253Z,15.93
2019-06-10T15:53:28.258Z,15.13
2019-06-10T15:56:14.421Z,17.62
2019-06-10T15:58:32.109Z,13.65
2019-06-10T16:01:05.328Z,18.53
2019-06-10T16:03:35.995Z,18.02
2019-06-10T16:06:07.263Z,20.65
2019-06-10T16:08:39.144Z,16.50
2019-06-10T16:11:10.618Z,15.55
2019-06-10T16:13:43.540Z,13.15
2019-06-10T16:16:14.952Z,19.23
2019-06-10T16:18:45.954Z,20.32
2019-06-10T16:21:17.458Z,20.30
2019-06-10T16:23:49.001Z,15.93
2019-06-10T16:26:20.032Z,16.80
2019-06-10T16:28:52.203Z,15.30
2019-06-10T16:31:25.561Z,15.00
2019-06-10T16:33:55.432Z,14.00
2019-06-10T16:36:32.023Z,15.40
2019-06-10T16:39:04.288Z,17.23
2019-06-10T16:41:37.305Z,17.00
2019-06-10T16:44:10.374Z,17.67
2019-06-10T16:46:43.157Z,16.32
2019-06-10T16:49:14.273Z,21.20
2019-06-10T16:51:45.227Z,16.57
2019-06-10T16:54:23.948Z,18.50
2019-06-10T16:56:53.102Z,17.40
2019-06-10T16:59:26.259Z,17.02
2019-06-10T17:01:57.781Z,20.85
2019-06-10T17:04:29.879Z,17.02
2019-06-10T17:07:02.213Z,17.43
2019-06-10T17:09:33.038Z,23.12
2019-06-10T17:12:04.579Z,19.67
2019-06-10T17:14:39.207Z,16.42
2019-06-10T17:17:14.951Z,23.32
2019-06-10T17:19:48.193Z,20.45
2019-06-10T17:22:24.086Z,21.80
2019-06-10T17:24:54.958Z,16.67
2019-06-10T17:27:27.905Z,16.32
2019-06-10T17:29:58.707Z,17.93
2019-06-10T17:32:30.278Z,18.10
2019-06-10T17:35:02.378Z,19.48
2019-06-10T17:37:34.248Z,19.30
2019-06-10T17:40:14.450Z,15.88
2019-06-10T17:42:46.039Z,19.65
2019-06-10T17:45:22.567Z,21.03
2019-06-10T17:47:54.437Z,19.37
2019-06-10T17:50:26.521Z,19.07
2019-06-10T17:52:57.848Z,17.70
2019-06-10T17:55:29.644Z,19.73
2019-06-10T17:58:07.547Z,14.50
2019-06-10T18:00:42.065Z,16.32
2019-06-10T18:03:13.573Z,17.85
2019-06-10T18:05:46.526Z,16.15
2019-06-10T18:08:18.598Z,18.75
2019-06-10T18:10:53.485Z,20.20
2019-06-10T18:13:30.058Z,16.40
2019-06-10T18:16:08.183Z,19.00
2019-06-10T18:18:43.794Z,16.50
2019-06-10T18:21:15.044Z,19.25
2019-06-10T18:23:46.026Z,19.00
2019-06-10T18:26:16.735Z,19.30
2019-06-10T18:29:04.444Z,17.73
2019-06-10T18:31:23.127Z,18.05
2019-06-10T18:33:53.178Z,18.90
2019-06-10T18:36:32.674Z,18.60
2019-06-10T18:39:07.068Z,17.65
2019-06-10T18:41:41.876Z,18.17
2019-06-10T18:44:22.476Z,16.90
2019-06-10T18:46:47.890Z,15.15
2019-06-10T18:49:22.659Z,19.80
2019-06-10T18:51:53.683Z,18.75
2019-06-10T18:54:25.157Z,17.48
2019-06-10T18:56:57.570Z,18.87
2019-06-10T18:59:33.153Z,17.95
2019-06-10T19:02:08.436Z,23.83
2019-06-10T19:04:40.334Z,23.70
2019-06-10T19:07:14.421Z,18.92
2019-06-10T19:09:48.039Z,15.83
2019-06-10T19:12:17.765Z,19.27
2019-06-10T19:14:48.545Z,17.87
2019-06-10T19:17:23.644Z,17.30
2019-06-10T19:19:55.326Z,18.90
2019-06-10T19:22:26.019Z,17.82
2019-06-10T19:24:57.539Z,20.50
2019-06-10T19:27:28.747Z,20.70
2019-06-10T19:29:59.395Z,17.95
2019-06-10T19:32:36.706Z,17.27
2019-06-10T19:35:13.128Z,17.90
2019-06-10T19:37:43.923Z,17.55
2019-06-10T19:40:16.195Z,19.57
2019-06-10T19:42:46.976Z,21.47
2019-06-10T19:45:18.092Z,18.32
2019-06-10T19:47:52.292Z,22.10
2019-06-10T19:50:23.349Z,19.12
2019-06-10T19:52:56.750Z,17.62
2019-06-10T19:55:29.367Z,17.57
2019-06-10T19:58:03.773Z,17.60
2019-06-10T20:00:35.930Z,16.67
2019-06-10T20:03:08.578Z,16.00
2019-06-10T20:05:40.058Z,19.90
2019-06-10T20:08:12.117Z,15.93
2019-06-10T20:10:44.481Z,17.35
2019-06-10T20:13:15.203Z,14.93
2019-06-10T20:15:47.978Z,16.77
2019-06-10T20:18:18.765Z,18.82
2019-06-10T20:20:49.329Z,16.00
2019-06-10T20:23:19.898Z,15.50
2019-06-10T20:25:52.700Z,17.13
2019-06-10T20:28:22.992Z,20.80
2019-06-10T20:31:12.728Z,15.18
2019-06-10T20:33:48.896Z,17.00
2019-06-10T20:36:23.296Z,19.73
2019-06-10T20:38:53.518Z,20.55
2019-06-10T20:41:24.571Z,17.35
2019-06-10T20:43:55.540Z,18.65
2019-06-10T20:46:26.503Z,19.73
2019-06-10T20:49:00.177Z,17.50
2019-06-10T20:51:46.191Z,16.65
2019-06-10T20:54:05.677Z,19.45
2019-06-10T20:56:38.594Z,19.77
2019-06-10T20:59:13.002Z,19.10
2019-06-10T21:01:44.412Z,20.30
2019-06-10T21:04:15.241Z,17.85
2019-06-10T21:06:47.661Z,18.00
2019-06-10T21:09:19.169Z,17.02
2019-06-10T21:11:51.036Z,18.30
2019-06-10T21:14:22.903Z,15.98
2019-06-10T21:16:53.817Z,15.93
2019-06-10T21:19:25.970Z,17.12
2019-06-10T21:21:56.793Z,20.60
2019-06-10T21:24:28.095Z,17.10
2019-06-10T21:26:59.219Z,17.30
2019-06-10T21:29:32.166Z,16.97
2019-06-10T21:32:03.675Z,18.57
2019-06-10T21:34:38.021Z,17.42
2019-06-10T21:37:08.722Z,17.87
2019-06-10T21:39:44.200Z,18.90
2019-06-10T21:42:13.091Z,15.20
2019-06-10T21:44:43.881Z,17.90
2019-06-10T21:47:14.614Z,17.42
2019-06-10T21:49:46.984Z,17.02
2019-06-10T21:52:17.619Z,17.37
2019-06-10T21:54:48.610Z,16.52
2019-06-10T21:57:19.396Z,14.73
2019-06-10T21:59:51.514Z,16.20
2019-06-10T22:02:23.101Z,14.50
2019-06-10T22:04:56.111Z,15.68
2019-06-10T22:07:26.768Z,14.53
2019-06-10T22:09:57.371Z,15.30
2019-06-10T22:12:27.942Z,15.00
2019-06-10T22:14:59.804Z,16.00
2019-06-10T22:17:30.513Z,15.90
2019-06-10T22:20:01.420Z,15.43
2019-06-10T22:22:32.347Z,11.85
2019-06-10T22:25:07.109Z,14.55
2019-06-10T22:27:37.867Z,12.10
2019-06-10T22:30:11.550Z,14.20
2019-06-10T22:32:42.953Z,13.68
2019-06-10T22:35:13.614Z,13.65
2019-06-10T22:37:45.600Z,14.85
2019-06-10T22:40:16.788Z,12.70
2019-06-10T22:42:47.521Z,12.23
2019-06-10T22:45:18.169Z,12.43
2019-06-10T22:47:49.719Z,12.50
2019-06-10T22:50:22.958Z,13.15
2019-06-10T22:52:55.593Z,12.25
2019-06-10T22:55:26.445Z,12.88
2019-06-10T22:57:59.745Z,11.38
2019-06-10T23:00:29.272Z,21.52
2019-06-10T23:03:02.548Z,12.23
2019-06-10T23:05:33.262Z,10.48
2019-06-10T23:08:04.117Z,11.43
2019-06-10T23:10:35.485Z,14.83
2019-06-10T23:13:07.782Z,11.97
2019-06-10T23:15:38.593Z,11.87
2019-06-10T23:18:12.477Z,11.97
2019-06-10T23:20:42.712Z,13.55
2019-06-10T23:23:13.979Z,13.48
2019-06-10T23:25:44.898Z,12.63
2019-06-10T23:28:15.990Z,11.63
2019-06-10T23:30:47.255Z,13.97
2019-06-10T23:33:17.873Z,11.43
2019-06-10T23:35:48.459Z,11.90
2019-06-10T23:38:19.152Z,12.60
2019-06-10T23:40:50.666Z,14.63
2019-06-10T23:43:22.555Z,13.62
2019-06-10T23:45:53.362Z,13.78
2019-06-10T23:48:23.987Z,10.68
2019-06-10T23:50:56.084Z,21.57
2019-06-10T23:53:27.136Z,12.55
2019-06-10T23:55:58.035Z,10.65
2019-06-10T23:58:32.863Z,9.68
